createdAt,value
2016-11-19T00:00:12.879Z,0
2016-11-19T00:01:12.846Z,0
2016-11-19T00:02:12.829Z,0
2016-11-19T00:03:13.120Z,0
2016-11-19T00:04:12.811Z,0
2016-11-19T00:05:13.087Z,0
2016-11-19T00:06:12.753Z,0
2016-11-19T00:07:12.756Z,0
2016-11-19T00:08:12.716Z,0
2016-11-19T00:09:13.346Z,0
2016-11-19T00:10:12.684Z,0
2016-11-19T00:11:12.655Z,0
2016-11-19T00:12:12.947Z,0
2016-11-19T00:13:12.612Z,0
2016-11-19T00:14:12.588Z,0
2016-11-19T00:15:12.589Z,0
2016-11-19T00:16:12.557Z,0
2016-11-19T00:17:12.535Z,0
2016-11-19T00:18:12.520Z,0
2016-11-19T00:19:12.491Z,0
2016-11-19T00:20:12.475Z,0
2016-11-19T00:21:12.479Z,0
2016-11-19T00:22:12.434Z,0
2016-11-19T00:23:12.417Z,0
2016-11-19T00:24:12.399Z,0
2016-11-19T00:25:12.373Z,0
2016-11-19T00:26:12.671Z,0
2016-11-19T00:27:12.342Z,0
2016-11-19T00:28:12.319Z,0
2016-11-19T00:29:12.298Z,0
2016-11-19T00:30:12.601Z,0
2016-11-19T00:31:12.265Z,0
2016-11-19T00:32:12.553Z,0
2016-11-19T00:33:12.229Z,0
2016-11-19T00:34:12.201Z,0
2016-11-19T00:35:12.181Z,0
2016-11-19T00:36:12.483Z,0
2016-11-19T00:37:12.140Z,0
2016-11-19T00:38:12.128Z,0
2016-11-19T00:39:12.101Z,0
2016-11-19T00:40:12.084Z,0
2016-11-19T00:41:12.066Z,0
2016-11-19T00:42:12.049Z,0
2016-11-19T00:43:12.032Z,0
2016-11-19T00:44:12.011Z,0
2016-11-19T00:45:11.991Z,0
2016-11-19T00:46:12.283Z,0
2016-11-19T00:47:12.272Z,0
2016-11-19T00:48:11.929Z,0
2016-11-19T00:49:11.909Z,0
2016-11-19T00:50:11.891Z,0
2016-11-19T00:51:11.874Z,0
2016-11-19T00:52:11.850Z,0
2016-11-19T00:53:12.146Z,0
2016-11-19T00:54:12.127Z,0
2016-11-19T00:55:11.790Z,0
2016-11-19T00:56:11.778Z,0
2016-11-19T00:57:11.758Z,0
2016-11-19T00:58:11.739Z,0
2016-11-19T00:59:11.714Z,0
2016-11-19T01:00:11.756Z,0
2016-11-19T01:01:11.680Z,0
2016-11-19T01:02:11.657Z,0
2016-11-19T01:03:11.947Z,0
2016-11-19T01:04:11.621Z,0
2016-11-19T01:05:11.598Z,0
2016-11-19T01:06:11.588Z,0
2016-11-19T01:07:11.878Z,0
2016-11-19T01:08:11.538Z,0
2016-11-19T01:09:11.522Z,0
2016-11-19T01:10:11.502Z,0
2016-11-19T01:11:11.804Z,0
2016-11-19T01:12:11.471Z,0
2016-11-19T01:13:11.448Z,0
2016-11-19T01:14:11.491Z,0
2016-11-19T01:15:11.415Z,0
2016-11-19T01:16:11.442Z,0
2016-11-19T01:17:11.362Z,0
2016-11-19T01:18:11.354Z,0
2016-11-19T01:19:11.324Z,0
2016-11-19T01:20:11.623Z,0
2016-11-19T01:21:11.286Z,0
2016-11-19T01:22:11.262Z,0
2016-11-19T01:23:11.256Z,0
2016-11-19T01:24:11.265Z,0
2016-11-19T01:25:11.213Z,0
2016-11-19T01:26:11.505Z,0
2016-11-19T01:27:11.173Z,0
2016-11-19T01:28:11.218Z,0
2016-11-19T01:29:11.123Z,0
2016-11-19T01:30:11.425Z,0
2016-11-19T01:31:11.126Z,0
2016-11-19T01:32:11.386Z,0
2016-11-19T01:33:11.051Z,0
2016-11-19T01:34:11.348Z,0
2016-11-19T01:35:11.008Z,0
2016-11-19T01:36:11.310Z,0
2016-11-19T01:37:11.287Z,0
2016-11-19T01:38:10.968Z,0
2016-11-19T01:39:11.448Z,0
2016-11-19T01:40:10.972Z,0
2016-11-19T01:41:10.898Z,0
2016-11-19T01:42:10.873Z,0
2016-11-19T01:43:10.847Z,0
2016-11-19T01:44:10.841Z,0
2016-11-19T01:45:11.177Z,0
2016-11-19T01:46:11.115Z,0
2016-11-19T01:47:10.806Z,0
2016-11-19T01:48:11.070Z,0
2016-11-19T01:49:10.743Z,0
2016-11-19T01:50:10.709Z,0
2016-11-19T01:51:10.696Z,0
2016-11-19T01:52:10.995Z,0
2016-11-19T01:53:10.996Z,0
2016-11-19T01:54:10.633Z,0
2016-11-19T01:55:10.935Z,0
2016-11-19T01:56:10.605Z,0
2016-11-19T01:57:10.575Z,0
2016-11-19T01:58:10.563Z,0
2016-11-19T01:59:10.538Z,0
2016-11-19T02:00:10.564Z,0
2016-11-19T02:01:10.496Z,0
2016-11-19T02:02:10.479Z,0
2016-11-19T02:03:10.457Z,0
2016-11-19T02:04:10.438Z,0
2016-11-19T02:05:10.423Z,0
2016-11-19T02:06:10.412Z,0
2016-11-19T02:07:10.388Z,0
2016-11-19T02:08:10.364Z,0
2016-11-19T02:09:10.346Z,0
2016-11-19T02:10:10.321Z,0
2016-11-19T02:11:10.317Z,0
2016-11-19T02:12:10.280Z,0
2016-11-19T02:13:10.265Z,0
2016-11-19T02:14:10.562Z,0
2016-11-19T02:15:10.228Z,0
2016-11-19T02:16:10.517Z,0
2016-11-19T02:17:10.495Z,0
2016-11-19T02:18:10.213Z,0
2016-11-19T02:19:10.141Z,0
2016-11-19T02:20:10.126Z,0
2016-11-19T02:21:10.418Z,0
2016-11-19T02:22:10.088Z,0
2016-11-19T02:23:10.068Z,0
2016-11-19T02:24:10.043Z,0
2016-11-19T02:25:10.022Z,0
2016-11-19T02:26:10.011Z,0
2016-11-19T02:27:10.300Z,0
2016-11-19T02:28:09.970Z,0
2016-11-19T02:29:10.266Z,0
2016-11-19T02:30:09.922Z,0
2016-11-19T02:31:10.275Z,0
2016-11-19T02:32:09.898Z,0
2016-11-19T02:33:09.884Z,0
2016-11-19T02:34:09.859Z,0
2016-11-19T02:35:10.168Z,0
2016-11-19T02:36:09.842Z,0
2016-11-19T02:37:09.802Z,0
2016-11-19T02:38:10.081Z,0
2016-11-19T02:39:10.071Z,0
2016-11-19T02:40:10.055Z,0
2016-11-19T02:41:10.157Z,0
2016-11-19T02:42:09.696Z,0
2016-11-19T02:43:09.678Z,0
2016-11-19T02:44:09.661Z,0
2016-11-19T02:45:09.956Z,0
2016-11-19T02:46:09.928Z,0
2016-11-19T02:47:09.603Z,0
2016-11-19T02:48:09.580Z,0
2016-11-19T02:49:09.556Z,0
2016-11-19T02:50:09.542Z,0
2016-11-19T02:51:09.865Z,0
2016-11-19T02:52:09.496Z,0
2016-11-19T02:53:10.423Z,0
2016-11-19T02:54:09.457Z,0
2016-11-19T02:55:09.440Z,0
2016-11-19T02:56:09.470Z,0
2016-11-19T02:57:09.408Z,0
2016-11-19T02:58:09.380Z,0
2016-11-19T02:59:09.673Z,0
2016-11-19T03:00:09.348Z,0
2016-11-19T03:01:09.640Z,0
2016-11-19T03:02:09.619Z,0
2016-11-19T03:03:09.336Z,0
2016-11-19T03:04:09.268Z,0
2016-11-19T03:05:09.560Z,0
2016-11-19T03:06:10.232Z,0
2016-11-19T03:07:09.210Z,0
2016-11-19T03:08:09.510Z,0
2016-11-19T03:09:09.488Z,0
2016-11-19T03:10:09.149Z,0
2016-11-19T03:11:09.136Z,0
2016-11-19T03:12:09.114Z,0
2016-11-19T03:13:09.096Z,0
2016-11-19T03:14:09.071Z,0
2016-11-19T03:15:09.056Z,0
2016-11-19T03:16:09.037Z,0
2016-11-19T03:17:09.010Z,0
2016-11-19T03:18:09.029Z,0
2016-11-19T03:19:09.603Z,0
2016-11-19T03:20:09.289Z,0
2016-11-19T03:21:08.940Z,0
2016-11-19T03:22:09.232Z,0
2016-11-19T03:23:08.902Z,0
2016-11-19T03:24:09.196Z,0
2016-11-19T03:25:08.860Z,0
2016-11-19T03:26:09.153Z,0
2016-11-19T03:27:08.831Z,0
2016-11-19T03:28:08.801Z,0
2016-11-19T03:29:09.109Z,0
2016-11-19T03:30:08.769Z,0
2016-11-19T03:31:08.774Z,0
2016-11-19T03:32:08.727Z,0
2016-11-19T03:33:08.709Z,0
2016-11-19T03:34:08.694Z,0
2016-11-19T03:35:08.983Z,0
2016-11-19T03:36:08.648Z,0
2016-11-19T03:37:08.623Z,0
2016-11-19T03:38:08.921Z,0
2016-11-19T03:39:08.993Z,0
2016-11-19T03:40:08.884Z,0
2016-11-19T03:41:08.586Z,0
2016-11-19T03:42:08.527Z,0
2016-11-19T03:43:08.517Z,0
2016-11-19T03:44:08.489Z,0
2016-11-19T03:45:08.791Z,0
2016-11-19T03:46:08.758Z,0
2016-11-19T03:47:08.750Z,0
2016-11-19T03:48:08.452Z,0
2016-11-19T03:49:08.390Z,0
2016-11-19T03:50:08.689Z,0
2016-11-19T03:51:08.978Z,0
2016-11-19T03:52:08.328Z,0
2016-11-19T03:53:08.633Z,0
2016-11-19T03:54:08.314Z,0
2016-11-19T03:55:08.940Z,0
2016-11-19T03:56:08.298Z,0
2016-11-19T03:57:08.250Z,0
2016-11-19T03:58:08.220Z,0
2016-11-19T03:59:08.201Z,0
2016-11-19T04:00:08.237Z,0
2016-11-19T04:01:08.511Z,0
2016-11-19T04:02:08.138Z,0
2016-11-19T04:03:08.437Z,0
2016-11-19T04:04:08.103Z,0
2016-11-19T04:05:08.092Z,0
2016-11-19T04:06:08.057Z,0
2016-11-19T04:07:08.044Z,0
2016-11-19T04:08:08.056Z,0
2016-11-19T04:09:07.995Z,0
2016-11-19T04:10:08.005Z,0
2016-11-19T04:11:08.320Z,0
2016-11-19T04:12:07.956Z,0
2016-11-19T04:13:08.240Z,0
2016-11-19T04:14:07.903Z,0
2016-11-19T04:15:08.202Z,0
2016-11-19T04:16:07.866Z,0
2016-11-19T04:17:07.843Z,0
2016-11-19T04:18:08.138Z,0
2016-11-19T04:19:07.809Z,0
2016-11-19T04:20:07.785Z,0
2016-11-19T04:21:08.081Z,0
2016-11-19T04:22:07.748Z,0
2016-11-19T04:23:07.730Z,0
2016-11-19T04:24:08.047Z,0
2016-11-19T04:25:07.686Z,0
2016-11-19T04:26:07.977Z,0
2016-11-19T04:27:07.681Z,0
2016-11-19T04:28:08.282Z,0
2016-11-19T04:29:07.639Z,0
2016-11-19T04:30:07.587Z,0
2016-11-19T04:31:07.567Z,0
2016-11-19T04:32:07.573Z,0
2016-11-19T04:33:07.898Z,0
2016-11-19T04:34:07.838Z,0
2016-11-19T04:35:07.487Z,0
2016-11-19T04:36:07.469Z,0
2016-11-19T04:37:07.446Z,0
2016-11-19T04:38:07.457Z,0
2016-11-19T04:39:07.400Z,0
2016-11-19T04:40:07.725Z,0
2016-11-19T04:41:07.361Z,0
2016-11-19T04:42:07.666Z,0
2016-11-19T04:43:07.327Z,0
2016-11-19T04:44:07.624Z,0
2016-11-19T04:45:07.609Z,0
2016-11-19T04:46:07.271Z,0
2016-11-19T04:47:07.247Z,0
2016-11-19T04:48:07.572Z,0
2016-11-19T04:49:07.208Z,0
2016-11-19T04:50:07.190Z,0
2016-11-19T04:51:07.171Z,0
2016-11-19T04:52:07.464Z,0
2016-11-19T04:53:07.191Z,0
2016-11-19T04:54:07.450Z,0
2016-11-19T04:55:07.096Z,0
2016-11-19T04:56:07.066Z,0
2016-11-19T04:57:07.048Z,0
2016-11-19T04:58:07.030Z,0
2016-11-19T04:59:07.016Z,0
2016-11-19T05:00:06.993Z,0
2016-11-19T05:01:06.982Z,0
2016-11-19T05:02:06.979Z,0
2016-11-19T05:03:06.938Z,0
2016-11-19T05:04:06.911Z,0
2016-11-19T05:05:06.888Z,0
2016-11-19T05:06:07.192Z,0
2016-11-19T05:07:07.167Z,0
2016-11-19T05:08:07.145Z,0
2016-11-19T05:09:07.486Z,0
2016-11-19T05:10:07.102Z,0
2016-11-19T05:11:06.775Z,0
2016-11-19T05:12:06.759Z,0
2016-11-19T05:13:07.049Z,0
2016-11-19T05:14:06.723Z,0
2016-11-19T05:15:07.020Z,0
2016-11-19T05:16:06.682Z,0
2016-11-19T05:17:06.993Z,0
2016-11-19T05:18:07.265Z,0
2016-11-19T05:19:06.623Z,0
2016-11-19T05:20:06.595Z,0
2016-11-19T05:21:06.575Z,0
2016-11-19T05:22:06.558Z,0
2016-11-19T05:23:06.547Z,0
2016-11-19T05:24:06.569Z,0
2016-11-19T05:25:06.815Z,0
2016-11-19T05:26:06.802Z,0
2016-11-19T05:27:06.460Z,0
2016-11-19T05:28:06.765Z,0
2016-11-19T05:29:06.418Z,0
2016-11-19T05:30:06.800Z,0
2016-11-19T05:31:06.377Z,0
2016-11-19T05:32:06.370Z,0
2016-11-19T05:33:06.345Z,0
2016-11-19T05:34:06.636Z,0
2016-11-19T05:35:06.296Z,0
2016-11-19T05:36:06.597Z,0
2016-11-19T05:37:06.262Z,0
2016-11-19T05:38:06.551Z,0
2016-11-19T05:39:06.223Z,0
2016-11-19T05:40:06.209Z,0
2016-11-19T05:41:06.184Z,0
2016-11-19T05:42:06.482Z,0
2016-11-19T05:43:06.457Z,0
2016-11-19T05:44:06.144Z,0
2016-11-19T05:45:06.430Z,0
2016-11-19T05:46:06.086Z,0
2016-11-19T05:47:06.070Z,0
2016-11-19T05:48:06.052Z,0
2016-11-19T05:49:06.342Z,0
2016-11-19T05:50:06.354Z,0
2016-11-19T05:51:05.991Z,0
2016-11-19T05:52:06.309Z,0
2016-11-19T05:53:06.261Z,0
2016-11-19T05:54:06.248Z,0
2016-11-19T05:55:06.229Z,0
2016-11-19T05:56:05.891Z,0
2016-11-19T05:57:05.869Z,0
2016-11-19T05:58:05.853Z,0
2016-11-19T05:59:06.145Z,0
2016-11-19T06:00:06.128Z,0
2016-11-19T06:01:05.799Z,0
2016-11-19T06:02:05.770Z,0
2016-11-19T06:03:05.783Z,0
2016-11-19T06:04:05.744Z,0
2016-11-19T06:05:05.711Z,0
2016-11-19T06:06:05.691Z,0
2016-11-19T06:07:05.680Z,0
2016-11-19T06:08:05.968Z,0
2016-11-19T06:09:05.952Z,0
2016-11-19T06:10:05.620Z,0
2016-11-19T06:11:05.598Z,0
2016-11-19T06:12:05.577Z,0
2016-11-19T06:13:05.882Z,0
2016-11-19T06:14:05.545Z,0
2016-11-19T06:15:05.873Z,0
2016-11-19T06:16:05.814Z,0
2016-11-19T06:17:05.813Z,0
2016-11-19T06:18:05.784Z,0
2016-11-19T06:19:05.765Z,0
2016-11-19T06:20:05.428Z,0
2016-11-19T06:21:06.032Z,0
2016-11-19T06:22:05.705Z,0
2016-11-19T06:23:05.691Z,0
2016-11-19T06:24:05.347Z,0
2016-11-19T06:25:05.324Z,0
2016-11-19T06:26:05.303Z,0
2016-11-19T06:27:05.288Z,0
2016-11-19T06:28:05.267Z,0
2016-11-19T06:29:05.255Z,0
2016-11-19T06:30:05.227Z,0
2016-11-19T06:31:05.217Z,0
2016-11-19T06:32:05.190Z,0
2016-11-19T06:33:05.792Z,0
2016-11-19T06:34:05.464Z,0
2016-11-19T06:35:05.186Z,0
2016-11-19T06:36:05.126Z,0
2016-11-19T06:37:05.107Z,0
2016-11-19T06:38:05.389Z,0
2016-11-19T06:39:05.055Z,0
2016-11-19T06:40:05.035Z,0
2016-11-19T06:41:05.336Z,0
2016-11-19T06:42:04.998Z,0
2016-11-19T06:43:04.979Z,0
2016-11-19T06:44:05.272Z,0
2016-11-19T06:45:04.947Z,0
2016-11-19T06:46:04.922Z,0
2016-11-19T06:47:04.900Z,0
2016-11-19T06:48:04.887Z,0
2016-11-19T06:49:04.865Z,0
2016-11-19T06:50:04.839Z,0
2016-11-19T06:51:05.144Z,0
2016-11-19T06:52:05.170Z,0
2016-11-19T06:53:04.787Z,0
2016-11-19T06:54:04.764Z,0
2016-11-19T06:55:04.746Z,0
2016-11-19T06:56:04.729Z,0
2016-11-19T06:57:04.709Z,0
2016-11-19T06:58:04.765Z,0
2016-11-19T06:59:05.018Z,5
2016-11-19T07:00:04.964Z,5
2016-11-19T07:01:04.631Z,5
2016-11-19T07:02:04.625Z,5
2016-11-19T07:03:04.594Z,5
2016-11-19T07:04:04.573Z,5
2016-11-19T07:05:04.557Z,5
2016-11-19T07:06:04.846Z,5
2016-11-19T07:07:04.553Z,5
2016-11-19T07:08:04.821Z,5
2016-11-19T07:09:04.794Z,5
2016-11-19T07:10:04.464Z,5
2016-11-19T07:11:04.436Z,5
2016-11-19T07:12:04.426Z,10
2016-11-19T07:13:04.404Z,10
2016-11-19T07:14:04.379Z,10
2016-11-19T07:15:04.363Z,10
2016-11-19T07:16:04.346Z,10
2016-11-19T07:17:04.330Z,10
2016-11-19T07:18:04.315Z,10
2016-11-19T07:19:04.303Z,10
2016-11-19T07:20:04.277Z,10
2016-11-19T07:21:04.599Z,10
2016-11-19T07:22:04.239Z,15
2016-11-19T07:23:04.550Z,15
2016-11-19T07:24:04.538Z,15
2016-11-19T07:25:04.177Z,15
2016-11-19T07:26:04.524Z,15
2016-11-19T07:27:04.145Z,15
2016-11-19T07:28:04.448Z,20
2016-11-19T07:29:04.414Z,20
2016-11-19T07:30:04.092Z,20
2016-11-19T07:31:04.384Z,20
2016-11-19T07:32:04.055Z,15
2016-11-19T07:33:04.341Z,15
2016-11-19T07:34:04.013Z,15
2016-11-19T07:35:03.991Z,15
2016-11-19T07:36:04.630Z,15
2016-11-19T07:37:03.970Z,20
2016-11-19T07:38:03.943Z,15
2016-11-19T07:39:04.235Z,20
2016-11-19T07:40:04.098Z,20
2016-11-19T07:41:03.886Z,20
2016-11-19T07:42:04.177Z,20
2016-11-19T07:43:03.843Z,20
2016-11-19T07:44:03.831Z,25
2016-11-19T07:45:03.833Z,20
2016-11-19T07:46:04.104Z,20
2016-11-19T07:47:03.771Z,25
2016-11-19T07:48:03.755Z,25
2016-11-19T07:49:04.055Z,30
2016-11-19T07:50:03.741Z,35
2016-11-19T07:51:04.043Z,35
2016-11-19T07:52:03.995Z,40
2016-11-19T07:53:03.972Z,45
2016-11-19T07:54:03.665Z,50
2016-11-19T07:55:03.671Z,50
2016-11-19T07:56:04.235Z,50
2016-11-19T07:57:03.936Z,50
2016-11-19T07:58:03.893Z,50
2016-11-19T07:59:03.558Z,45
2016-11-19T08:00:03.537Z,45
2016-11-19T08:01:03.519Z,45
2016-11-19T08:02:03.811Z,40
2016-11-19T08:03:03.479Z,40
2016-11-19T08:04:04.089Z,40
2016-11-19T08:05:04.074Z,45
2016-11-19T08:06:03.735Z,50
2016-11-19T08:07:04.041Z,55
2016-11-19T08:08:03.731Z,55
2016-11-19T08:09:03.407Z,65
2016-11-19T08:10:03.351Z,60
2016-11-19T08:11:03.326Z,55
2016-11-19T08:12:03.630Z,50
2016-11-19T08:13:03.294Z,45
2016-11-19T08:14:03.591Z,40
2016-11-19T08:15:03.580Z,35
2016-11-19T08:16:03.262Z,35
2016-11-19T08:17:03.238Z,45
2016-11-19T08:18:03.212Z,45
2016-11-19T08:19:03.182Z,45
2016-11-19T08:20:03.500Z,40
2016-11-19T08:21:03.145Z,50
2016-11-19T08:22:03.763Z,50
2016-11-19T08:23:03.748Z,50
2016-11-19T08:24:03.099Z,50
2016-11-19T08:25:03.095Z,50
2016-11-19T08:26:03.375Z,50
2016-11-19T08:27:03.048Z,55
2016-11-19T08:28:03.339Z,55
2016-11-19T08:29:03.042Z,50
2016-11-19T08:30:02.995Z,50
2016-11-19T08:31:03.604Z,50
2016-11-19T08:32:02.956Z,60
2016-11-19T08:33:02.931Z,60
2016-11-19T08:34:02.923Z,55
2016-11-19T08:35:03.215Z,50
2016-11-19T08:36:03.199Z,50
2016-11-19T08:37:03.275Z,50
2016-11-19T08:38:02.849Z,45
2016-11-19T08:39:02.833Z,45
2016-11-19T08:40:03.129Z,45
2016-11-19T08:41:02.825Z,45
2016-11-19T08:42:02.777Z,45
2016-11-19T08:43:02.798Z,50
2016-11-19T08:44:02.744Z,50
2016-11-19T08:45:02.729Z,55
2016-11-19T08:46:02.705Z,45
2016-11-19T08:47:03.065Z,45
2016-11-19T08:48:03.065Z,45
2016-11-19T08:49:02.983Z,45
2016-11-19T08:50:02.961Z,45
2016-11-19T08:51:03.264Z,40
2016-11-19T08:52:02.919Z,35
2016-11-19T08:53:02.919Z,40
2016-11-19T08:54:02.886Z,45
2016-11-19T08:55:02.874Z,45
2016-11-19T08:56:02.537Z,50
2016-11-19T08:57:02.513Z,50
2016-11-19T08:58:02.503Z,50
2016-11-19T08:59:02.480Z,45
2016-11-19T09:00:02.462Z,50
2016-11-19T09:01:02.761Z,45
2016-11-19T09:02:02.432Z,40
2016-11-19T09:03:02.459Z,50
2016-11-19T09:04:02.390Z,55
2016-11-19T09:05:03.016Z,70
2016-11-19T09:06:02.358Z,65
2016-11-19T09:07:02.348Z,65
2016-11-19T09:08:02.356Z,65
2016-11-19T09:09:02.617Z,65
2016-11-19T09:10:02.317Z,70
2016-11-19T09:11:02.272Z,70
2016-11-19T09:12:02.563Z,70
2016-11-19T09:13:02.228Z,85
2016-11-19T09:14:02.549Z,105
2016-11-19T09:15:02.195Z,125
2016-11-19T09:16:02.190Z,140
2016-11-19T09:17:02.162Z,145
2016-11-19T09:18:02.146Z,140
2016-11-19T09:19:02.158Z,145
2016-11-19T09:20:02.424Z,150
2016-11-19T09:21:02.419Z,145
2016-11-19T09:22:02.391Z,135
2016-11-19T09:23:02.381Z,120
2016-11-19T09:24:02.041Z,100
2016-11-19T09:25:02.024Z,95
2016-11-19T09:26:02.321Z,105
2016-11-19T09:27:01.999Z,105
2016-11-19T09:28:31.850Z,110
2016-11-19T09:29:01.961Z,120
2016-11-19T09:30:02.248Z,150
2016-11-19T09:31:01.925Z,160
2016-11-19T09:32:01.903Z,145
2016-11-19T09:33:01.909Z,135
2016-11-19T09:34:02.185Z,135
2016-11-19T09:35:01.900Z,125
2016-11-19T09:36:01.843Z,110
2016-11-19T09:37:01.823Z,110
2016-11-19T09:38:01.834Z,105
2016-11-19T09:39:01.785Z,115
2016-11-19T09:40:01.970Z,120
2016-11-19T09:41:02.064Z,125
2016-11-19T09:42:01.737Z,135
2016-11-19T09:43:01.726Z,155
2016-11-19T09:44:01.700Z,155
2016-11-19T09:45:02.007Z,155
2016-11-19T09:46:01.668Z,155
2016-11-19T09:47:01.648Z,145
2016-11-19T09:48:01.637Z,145
2016-11-19T09:49:01.614Z,150
2016-11-19T09:50:01.604Z,130
2016-11-19T09:51:01.588Z,110
2016-11-19T09:52:01.562Z,85
2016-11-19T09:53:01.556Z,90
2016-11-19T09:54:01.895Z,100
2016-11-19T09:55:01.512Z,90
2016-11-19T09:56:01.506Z,90
2016-11-19T09:57:01.496Z,90
2016-11-19T09:58:01.470Z,90
2016-11-19T09:59:01.449Z,90
2016-11-19T10:00:01.752Z,70
2016-11-19T10:01:01.420Z,65
2016-11-19T10:02:01.407Z,80
2016-11-19T10:03:01.385Z,95
2016-11-19T10:04:01.415Z,90
2016-11-19T10:05:01.360Z,90
2016-11-19T10:06:01.333Z,85
2016-11-19T10:07:01.314Z,80
2016-11-19T10:08:01.612Z,75
2016-11-19T10:09:01.297Z,55
2016-11-19T10:10:01.266Z,60
2016-11-19T10:11:01.268Z,85
2016-11-19T10:12:01.856Z,100
2016-11-19T10:13:01.226Z,80
2016-11-19T10:14:01.573Z,60
2016-11-19T10:15:01.198Z,55
2016-11-19T10:16:01.167Z,65
2016-11-19T10:17:01.459Z,70
2016-11-19T10:18:01.128Z,85
2016-11-19T10:19:01.167Z,105
2016-11-19T10:20:01.116Z,120
2016-11-19T10:21:01.713Z,115
2016-11-19T10:22:01.372Z,130
2016-11-19T10:23:01.057Z,155
2016-11-19T10:24:01.030Z,205
2016-11-19T10:25:01.008Z,235
2016-11-19T10:26:01.033Z,265
2016-11-19T10:27:00.977Z,250
2016-11-19T10:28:01.272Z,235
2016-11-19T10:29:00.943Z,195
2016-11-19T10:30:00.935Z,190
2016-11-19T10:31:00.909Z,305
2016-11-19T10:32:00.901Z,285
2016-11-19T10:33:01.201Z,215
2016-11-19T10:34:00.861Z,140
2016-11-19T10:35:00.839Z,90
2016-11-19T10:36:00.818Z,80
2016-11-19T10:37:00.806Z,55
2016-11-19T10:38:01.126Z,50
2016-11-19T10:39:00.803Z,65
2016-11-19T10:40:01.438Z,90
2016-11-19T10:41:00.738Z,140
2016-11-19T10:42:00.726Z,140
2016-11-19T10:43:00.703Z,90
2016-11-19T10:44:00.685Z,70
2016-11-19T10:45:00.990Z,70
2016-11-19T10:46:00.653Z,50
2016-11-19T10:47:00.629Z,45
2016-11-19T10:48:00.621Z,60
2016-11-19T10:49:00.605Z,80
2016-11-19T10:50:00.897Z,145
2016-11-19T10:51:00.564Z,125
2016-11-19T10:52:00.881Z,110
2016-11-19T10:53:00.848Z,100
2016-11-19T10:54:00.859Z,95
2016-11-19T10:55:00.814Z,85
2016-11-19T10:56:00.481Z,95
2016-11-19T10:57:00.468Z,115
2016-11-19T10:58:00.447Z,125
2016-11-19T10:59:00.424Z,145
2016-11-19T11:00:00.728Z,145
2016-11-19T11:01:00.397Z,130
2016-11-19T11:02:00.376Z,110
2016-11-19T11:03:00.359Z,110
2016-11-19T11:04:00.658Z,115
2016-11-19T11:05:00.340Z,135
2016-11-19T11:06:00.320Z,170
2016-11-19T11:07:00.295Z,165
2016-11-19T11:08:00.278Z,150
2016-11-19T11:09:00.258Z,150
2016-11-19T11:10:00.239Z,130
2016-11-19T11:11:00.560Z,115
2016-11-19T11:12:00.515Z,100
2016-11-19T11:13:00.184Z,90
2016-11-19T11:14:00.482Z,85
2016-11-19T11:15:00.149Z,95
2016-11-19T11:16:00.149Z,95
2016-11-19T11:17:00.128Z,85
2016-11-19T11:18:00.118Z,85
2016-11-19T11:19:00.396Z,75
2016-11-19T11:20:00.072Z,65
2016-11-19T11:21:00.048Z,70
2016-11-19T11:22:00.032Z,70
2016-11-19T11:23:00.013Z,55
2016-11-19T11:24:00.046Z,50
2016-11-19T11:25:00.293Z,50
2016-11-19T11:25:59.963Z,60
2016-11-19T11:26:59.945Z,70
2016-11-19T11:27:59.938Z,75
2016-11-19T11:28:59.921Z,80
2016-11-19T11:29:59.916Z,85
2016-11-19T11:30:59.870Z,85
2016-11-19T11:31:59.868Z,75
2016-11-19T11:32:59.843Z,85
2016-11-19T11:33:59.850Z,90
2016-11-19T11:35:00.142Z,85
2016-11-19T11:36:00.138Z,80
2016-11-19T11:36:59.777Z,65
2016-11-19T11:37:59.746Z,55
2016-11-19T11:38:59.735Z,70
2016-11-19T11:40:00.241Z,85
2016-11-19T11:40:59.703Z,95
2016-11-19T11:41:59.994Z,95
2016-11-19T11:42:59.986Z,105
2016-11-19T11:43:59.647Z,120
2016-11-19T11:44:59.950Z,120
2016-11-19T11:45:59.657Z,95
2016-11-19T11:46:59.917Z,65
2016-11-19T11:47:59.583Z,50
2016-11-19T11:48:59.565Z,40
2016-11-19T11:49:59.859Z,35
2016-11-19T11:50:59.854Z,35
2016-11-19T11:51:59.820Z,35
2016-11-19T11:52:59.496Z,55
2016-11-19T11:53:59.793Z,85
2016-11-19T11:54:59.456Z,105
2016-11-19T11:55:59.804Z,135
2016-11-19T11:56:59.442Z,150
2016-11-19T11:57:59.730Z,150
2016-11-19T11:58:59.395Z,130
2016-11-19T11:59:59.371Z,125
2016-11-19T12:00:59.358Z,130
2016-11-19T12:01:59.338Z,135
2016-11-19T12:02:59.362Z,135
2016-11-19T12:03:59.318Z,145
2016-11-19T12:04:59.614Z,165
2016-11-19T12:05:59.302Z,155
2016-11-19T12:06:59.258Z,155
2016-11-19T12:07:59.575Z,190
2016-11-19T12:08:59.216Z,225
2016-11-19T12:09:59.253Z,175
2016-11-19T12:10:59.191Z,125
2016-11-19T12:11:59.171Z,95
2016-11-19T12:12:59.190Z,80
2016-11-19T12:13:59.142Z,75
2016-11-19T12:14:59.130Z,80
2016-11-19T12:15:59.744Z,75
2016-11-19T12:16:59.095Z,80
2016-11-19T12:17:59.081Z,85
2016-11-19T12:18:59.703Z,95
2016-11-19T12:19:59.044Z,115
2016-11-19T12:20:59.656Z,120
2016-11-19T12:21:59.016Z,130
2016-11-19T12:22:59.040Z,140
2016-11-19T12:23:58.986Z,140
2016-11-19T12:24:58.954Z,120
2016-11-19T12:25:58.968Z,105
2016-11-19T12:26:58.922Z,105
2016-11-19T12:27:58.907Z,105
2016-11-19T12:28:59.240Z,105
2016-11-19T12:29:58.874Z,100
2016-11-19T12:30:58.884Z,110
2016-11-19T12:31:59.151Z,120
2016-11-19T12:32:59.166Z,120
2016-11-19T12:33:59.116Z,110
2016-11-19T12:34:58.791Z,95
2016-11-19T12:35:58.775Z,80
2016-11-19T12:36:59.071Z,75
2016-11-19T12:37:58.739Z,80
2016-11-19T12:38:58.734Z,80
2016-11-19T12:39:58.705Z,80
2016-11-19T12:40:58.695Z,90
2016-11-19T12:41:58.709Z,95
2016-11-19T12:42:58.651Z,100
2016-11-19T12:43:58.953Z,120
2016-11-19T12:44:58.958Z,105
2016-11-19T12:45:58.914Z,95
2016-11-19T12:46:58.586Z,110
2016-11-19T12:47:58.568Z,135
2016-11-19T12:48:58.555Z,135
2016-11-19T12:49:58.845Z,110
2016-11-19T12:50:58.521Z,120
2016-11-19T12:51:58.506Z,145
2016-11-19T12:52:58.814Z,180
2016-11-19T12:53:58.788Z,180
2016-11-19T12:54:58.760Z,380
2016-11-19T12:55:58.497Z,195
2016-11-19T12:56:58.419Z,215
2016-11-19T12:57:58.399Z,230
2016-11-19T12:58:58.390Z,450
2016-11-19T12:59:58.374Z,235
2016-11-19T13:00:58.352Z,420
2016-11-19T13:01:58.339Z,170
2016-11-19T13:02:58.352Z,145
2016-11-19T13:03:58.304Z,155
2016-11-19T13:04:58.287Z,420
2016-11-19T13:05:58.302Z,415
2016-11-19T13:06:58.263Z,395
2016-11-19T13:07:58.247Z,395
2016-11-19T13:08:58.236Z,395
2016-11-19T13:09:58.214Z,420
2016-11-19T13:10:58.210Z,420
2016-11-19T13:11:58.214Z,425
2016-11-19T13:12:58.207Z,385
2016-11-19T13:13:58.481Z,415
2016-11-19T13:14:58.179Z,385
2016-11-19T13:15:58.136Z,405
2016-11-19T13:16:58.127Z,415
2016-11-19T13:17:58.108Z,440
2016-11-19T13:18:58.419Z,260
2016-11-19T13:19:58.096Z,370
2016-11-19T13:20:58.084Z,360
2016-11-19T13:21:58.091Z,300
2016-11-19T13:22:58.057Z,215
2016-11-19T13:23:58.100Z,95
2016-11-19T13:24:58.038Z,85
2016-11-19T13:25:58.063Z,85
2016-11-19T13:26:58.335Z,85
2016-11-19T13:27:58.330Z,95
2016-11-19T13:28:57.993Z,95
2016-11-19T13:29:58.664Z,85
2016-11-19T13:30:57.974Z,85
2016-11-19T13:31:57.967Z,105
2016-11-19T13:32:57.950Z,85
2016-11-19T13:33:57.981Z,75
2016-11-19T13:34:57.929Z,70
2016-11-19T13:35:57.915Z,70
2016-11-19T13:36:58.219Z,70
2016-11-19T13:37:57.899Z,75
2016-11-19T13:38:57.917Z,90
2016-11-19T13:39:58.381Z,90
2016-11-19T13:40:57.844Z,85
2016-11-19T13:41:57.838Z,85
2016-11-19T13:42:57.821Z,95
2016-11-19T13:43:57.811Z,85
2016-11-19T13:44:57.797Z,70
2016-11-19T13:45:57.783Z,70
2016-11-19T13:46:58.392Z,70
2016-11-19T13:47:57.753Z,70
2016-11-19T13:48:57.731Z,70
2016-11-19T13:49:58.034Z,75
2016-11-19T13:50:57.706Z,90
2016-11-19T13:51:57.996Z,80
2016-11-19T13:52:57.676Z,80
2016-11-19T13:53:58.321Z,85
2016-11-19T13:54:57.666Z,85
2016-11-19T13:55:58.567Z,80
2016-11-19T13:56:57.933Z,80
2016-11-19T13:57:57.606Z,75
2016-11-19T13:58:57.578Z,65
2016-11-19T13:59:57.565Z,70
2016-11-19T14:00:57.552Z,75
2016-11-19T14:01:57.523Z,75
2016-11-19T14:02:57.515Z,80
2016-11-19T14:03:57.494Z,75
2016-11-19T14:04:57.489Z,70
2016-11-19T14:05:57.789Z,60
2016-11-19T14:06:57.763Z,55
2016-11-19T14:07:57.432Z,65
2016-11-19T14:08:57.423Z,70
2016-11-19T14:09:57.421Z,70
2016-11-19T14:10:57.391Z,60
2016-11-19T14:11:57.681Z,65
2016-11-19T14:12:57.352Z,70
2016-11-19T14:13:57.336Z,75
2016-11-19T14:14:57.635Z,80
2016-11-19T14:15:57.303Z,80
2016-11-19T14:16:57.597Z,80
2016-11-19T14:17:57.265Z,75
2016-11-19T14:18:57.259Z,65
2016-11-19T14:19:57.234Z,65
2016-11-19T14:20:57.284Z,70
2016-11-19T14:21:57.209Z,65
2016-11-19T14:22:57.193Z,70
2016-11-19T14:23:57.173Z,70
2016-11-19T14:24:57.468Z,70